Time;durP1;ratioP1;P1;durP2;ratioP2;P2;SDS_P1;SDS_P2;PMS_P1;PMS_P2;Temp;Humidity;BMP_temperature;BMP_pressure;BME280_temperature;BME280_humidity;BME280_pressure;Samples;Min_cycle;Max_cycle;Signal;HPM_P1;HPM_P2
2021/12/21 00:01:15;;;;;;;0.65;0.65;;;;;;;;;;6273044;22;19999;-68
2021/12/21 00:03:40;;;;;;;0.00;0.00;;;;;;;;;;6272969;22;19995;-69
2021/12/21 00:06:06;;;;;;;0.00;0.00;;;;;;;;;;6272611;22;20078;-67
2021/12/21 00:08:31;;;;;;;0.00;0.00;;;;;;;;;;6273044;22;20003;-68
2021/12/21 00:10:58;;;;;;;0.00;0.00;;;;;;;;;;6273183;22;20003;-69
2021/12/21 00:26:00;;;;;;;0.00;0.00;;;;;;;;;;6272637;22;20433;-69
2021/12/21 00:28:25;;;;;;;0.00;0.00;;;;;;;;;;6272488;22;20000;-69
2021/12/21 00:30:51;;;;;;;0.00;0.00;;;;;;;;;;6246035;22;20041;-69
2021/12/21 00:33:17;;;;;;;0.00;0.00;;;;;;;;;;6272301;22;19996;-68
2021/12/21 00:35:42;;;;;;;0.00;0.00;;;;;;;;;;6273062;22;20003;-68
2021/12/21 00:38:07;;;;;;;0.00;0.00;;;;;;;;;;6272840;22;19999;-67
2021/12/21 00:40:33;;;;;;;0.00;0.00;;;;;;;;;;6272908;22;20075;-68
2021/12/21 00:42:58;;;;;;;1.08;1.02;;;;;;;;;;6272637;22;20000;-69
2021/12/21 00:45:23;;;;;;;0.00;0.00;;;;;;;;;;6271921;22;20011;-68
2021/12/21 00:47:49;;;;;;;0.00;0.00;;;;;;;;;;6273000;22;19996;-68
2021/12/21 00:50:17;;;;;;;0.00;0.00;;;;;;;;;;6272572;22;19996;-68
2021/12/21 00:52:46;;;;;;;0.00;0.00;;;;;;;;;;6273129;22;19995;-68
2021/12/21 00:55:12;;;;;;;;;;;;;;;;;;6272893;22;20078;-68
2021/12/21 00:57:37;;;;;;;0.00;0.00;;;;;;;;;;6272496;22;19935;-68
2021/12/21 01:00:04;;;;;;;0.00;0.00;;;;;;;;;;6271899;22;20043;-68
2021/12/21 01:02:30;;;;;;;0.00;0.00;;;;;;;;;;6272161;22;20003;-67
2021/12/21 01:04:56;;;;;;;0.00;0.00;;;;;;;;;;6271736;22;20470;-69
2021/12/21 01:07:29;;;;;;;0.00;0.00;;;;;;;;;;6272224;22;20287;-68
2021/12/21 01:10:41;;;;;;;0.43;0.43;;;;;;;;;;6272777;22;19995;-70
2021/12/21 01:13:12;;;;;;;0.00;0.00;;;;;;;;;;6271947;22;20102;-69
2021/12/21 01:15:59;;;;;;;0.00;0.00;;;;;;;;;;6271712;22;20007;-69
2021/12/21 01:18:33;;;;;;;0.00;0.00;;;;;;;;;;6271407;22;20003;-69
2021/12/21 01:21:11;;;;;;;0.00;0.00;;;;;;;;;;6272680;22;19996;-68
2021/12/21 01:26:16;;;;;;;0.00;0.00;;;;;;;;;;6282553;22;20016;-68
2021/12/21 01:28:49;;;;;;;0.00;0.00;;;;;;;;;;6273074;22;20247;-68
2021/12/21 01:31:24;;;;;;;0.00;0.00;;;;;;;;;;6272128;22;20010;-68
2021/12/21 01:36:40;;;;;;;0.63;0.63;;;;;;;;;;6272387;22;20035;-69
2021/12/21 01:49:38;;;;;;;0.00;0.00;;;;;;;;;;6271923;22;20011;-69
2021/12/21 01:52:07;;;;;;;0.00;0.00;;;;;;;;;;6272130;22;20030;-68
2021/12/21 01:54:33;;;;;;;0.00;0.00;;;;;;;;;;6272305;22;19999;-69
2021/12/21 01:56:58;;;;;;;0.00;0.00;;;;;;;;;;6272166;22;20471;-70
2021/12/21 01:59:24;;;;;;;0.00;0.00;;;;;;;;;;6271663;22;20023;-68
2021/12/21 02:01:49;;;;;;;0.00;0.00;;;;;;;;;;6271630;22;20434;-67
2021/12/21 02:04:17;;;;;;;0.00;0.00;;;;;;;;;;6271775;22;20086;-68
2021/12/21 02:06:43;;;;;;;0.15;0.15;;;;;;;;;;6272222;22;20361;-68
2021/12/21 02:09:08;;;;;;;0.00;0.00;;;;;;;;;;6272741;22;19996;-69
2021/12/21 02:11:34;;;;;;;0.65;0.65;;;;;;;;;;6271867;22;19991;-69
2021/12/21 02:13:59;;;;;;;0.00;0.00;;;;;;;;;;6272860;22;19995;-69
2021/12/21 02:16:44;;;;;;;0.00;0.00;;;;;;;;;;6273488;22;20383;-69
2021/12/21 02:19:21;;;;;;;0.00;0.00;;;;;;;;;;6274275;22;20027;-68
2021/12/21 02:21:51;;;;;;;0.52;0.52;;;;;;;;;;6274581;22;20452;-69
2021/12/21 02:24:21;;;;;;;0.00;0.00;;;;;;;;;;6246513;22;20083;-68
2021/12/21 02:29:27;;;;;;;0.00;0.00;;;;;;;;;;6274179;22;20003;-69
2021/12/21 02:31:53;;;;;;;0.00;0.00;;;;;;;;;;6274126;22;20004;-69
2021/12/21 02:34:18;;;;;;;0.00;0.00;;;;;;;;;;6273768;22;19998;-69
2021/12/21 02:36:45;;;;;;;0.00;0.00;;;;;;;;;;6274233;22;20003;-69
2021/12/21 02:39:11;;;;;;;0.15;0.15;;;;;;;;;;6273844;22;19995;-68
2021/12/21 02:41:37;;;;;;;0.00;0.00;;;;;;;;;;6274067;22;19992;-69
2021/12/21 02:44:02;;;;;;;0.00;0.00;;;;;;;;;;6273907;22;20335;-69
2021/12/21 02:46:27;;;;;;;0.00;0.00;;;;;;;;;;6273301;22;20416;-70
2021/12/21 02:48:53;;;;;;;6.30;6.00;;;;;;;;;;6274054;22;19996;-69
2021/12/21 02:51:18;;;;;;;0.00;0.00;;;;;;;;;;6273031;22;20007;-70
2021/12/21 02:53:44;;;;;;;0.00;0.00;;;;;;;;;;6274452;22;19999;-70
2021/12/21 02:56:10;;;;;;;0.00;0.00;;;;;;;;;;6273651;22;20377;-69
2021/12/21 02:58:35;;;;;;;0.00;0.00;;;;;;;;;;6273200;22;20023;-69
2021/12/21 03:01:00;;;;;;;0.00;0.00;;;;;;;;;;6273654;22;20058;-68
2021/12/21 03:03:26;;;;;;;0.00;0.00;;;;;;;;;;6273145;22;20042;-68
2021/12/21 03:05:55;;;;;;;0.00;0.00;;;;;;;;;;6273655;22;20004;-68
2021/12/21 03:08:24;;;;;;;0.00;0.00;;;;;;;;;;6273484;22;19999;-69
2021/12/21 03:16:41;;;;;;;0.00;0.00;;;;;;;;;;6254360;22;20071;-69
2021/12/21 03:19:08;;;;;;;0.00;0.00;;;;;;;;;;6274208;22;20007;-69
2021/12/21 03:21:34;;;;;;;0.00;0.00;;;;;;;;;;6273444;22;20370;-69
2021/12/21 03:24:00;;;;;;;0.00;0.00;;;;;;;;;;6273833;22;20436;-69
2021/12/21 03:26:25;;;;;;;0.00;0.00;;;;;;;;;;6273120;22;20006;-69
2021/12/21 03:28:51;;;;;;;0.00;0.00;;;;;;;;;;6273957;22;20011;-69
2021/12/21 03:31:16;;;;;;;0.00;0.00;;;;;;;;;;6273399;22;20002;-68
2021/12/21 03:33:41;;;;;;;0.00;0.00;;;;;;;;;;6272963;22;20435;-69
2021/12/21 03:36:07;;;;;;;0.00;0.00;;;;;;;;;;6273844;22;20006;-69
2021/12/21 03:38:33;;;;;;;0.00;0.00;;;;;;;;;;6272704;22;20004;-69
2021/12/21 03:41:09;;;;;;;0.00;0.00;;;;;;;;;;6273812;22;19996;-69
2021/12/21 03:43:35;;;;;;;0.00;0.00;;;;;;;;;;6272964;22;20341;-70
2021/12/21 03:46:11;;;;;;;0.00;0.00;;;;;;;;;;6273371;22;19999;-70
2021/12/21 03:48:37;;;;;;;0.45;0.43;;;;;;;;;;6272559;22;20440;-69
2021/12/21 03:51:03;;;;;;;0.00;0.00;;;;;;;;;;6273894;22;20066;-69
2021/12/21 03:53:28;;;;;;;0.00;0.00;;;;;;;;;;6273071;22;20026;-69
2021/12/21 03:56:08;;;;;;;0.00;0.00;;;;;;;;;;6273588;22;20004;-69
2021/12/21 03:58:34;;;;;;;0.00;0.00;;;;;;;;;;6272160;22;20020;-69
2021/12/21 04:00:59;;;;;;;0.00;0.00;;;;;;;;;;6273449;22;20019;-69
2021/12/21 04:03:25;;;;;;;0.00;0.00;;;;;;;;;;6272970;22;20007;-69
2021/12/21 04:05:50;;;;;;;0.00;0.00;;;;;;;;;;6273028;22;19999;-69
2021/12/21 04:08:15;;;;;;;0.00;0.00;;;;;;;;;;6272151;22;19996;-69
2021/12/21 04:10:40;;;;;;;13.25;7.63;;;;;;;;;;6273565;22;20075;-69
2021/12/21 04:13:09;;;;;;;0.00;0.00;;;;;;;;;;6273123;22;20081;-69
2021/12/21 04:15:42;;;;;;;0.00;0.00;;;;;;;;;;6272896;22;20531;-69
2021/12/21 04:18:07;;;;;;;5.38;5.18;;;;;;;;;;6273150;22;20414;-69
2021/12/21 04:20:32;;;;;;;0.00;0.00;;;;;;;;;;6272932;22;20065;-69
2021/12/21 04:22:57;;;;;;;0.10;0.08;;;;;;;;;;6273362;22;20310;-69
2021/12/21 04:25:22;;;;;;;0.00;0.00;;;;;;;;;;6272985;22;20433;-69
2021/12/21 04:27:48;;;;;;;0.00;0.00;;;;;;;;;;6272752;22;20004;-69
2021/12/21 04:30:13;;;;;;;0.00;0.00;;;;;;;;;;6273049;22;20003;-69
2021/12/21 04:32:38;;;;;;;0.00;0.00;;;;;;;;;;6271368;22;19992;-69
2021/12/21 04:35:04;;;;;;;0.52;0.47;;;;;;;;;;6272597;22;20015;-69
2021/12/21 04:37:34;;;;;;;0.00;0.00;;;;;;;;;;6271986;22;20521;-69
2021/12/21 04:40:05;;;;;;;0.32;0.32;;;;;;;;;;6272924;22;20027;-68
2021/12/21 04:42:30;;;;;;;0.52;0.52;;;;;;;;;;6272610;22;20421;-69
2021/12/21 04:44:55;;;;;;;0.93;0.93;;;;;;;;;;6272626;22;20011;-69
2021/12/21 04:47:20;;;;;;;0.00;0.00;;;;;;;;;;6271774;22;20000;-69
2021/12/21 04:49:46;;;;;;;0.00;0.00;;;;;;;;;;6273039;22;20352;-68
2021/12/21 04:52:11;;;;;;;0.85;0.85;;;;;;;;;;6272729;22;20291;-68
2021/12/21 04:54:37;;;;;;;0.40;0.40;;;;;;;;;;6272397;22;19996;-68
2021/12/21 04:57:02;;;;;;;0.00;0.00;;;;;;;;;;6272716;22;20030;-68
2021/12/21 04:59:27;;;;;;;0.00;0.00;;;;;;;;;;6271957;22;20032;-68
2021/12/21 05:01:53;;;;;;;0.00;0.00;;;;;;;;;;6272527;22;20000;-68
2021/12/21 05:04:19;;;;;;;0.00;0.00;;;;;;;;;;6271726;22;20003;-68
2021/12/21 05:06:44;;;;;;;0.00;0.00;;;;;;;;;;6273047;22;20011;-68
2021/12/21 05:09:22;;;;;;;0.00;0.00;;;;;;;;;;6272707;22;20027;-68
2021/12/21 05:11:47;;;;;;;0.00;0.00;;;;;;;;;;6272834;22;20007;-67
2021/12/21 05:14:12;;;;;;;0.00;0.00;;;;;;;;;;6272558;22;19996;-67
2021/12/21 05:16:38;;;;;;;0.00;0.00;;;;;;;;;;6270914;22;20456;-68
2021/12/21 05:19:03;;;;;;;0.00;0.00;;;;;;;;;;6272789;22;20045;-67
2021/12/21 05:21:28;;;;;;;0.00;0.00;;;;;;;;;;6271938;22;20074;-67
2021/12/21 05:23:54;;;;;;;0.10;0.10;;;;;;;;;;6272677;22;20003;-68
2021/12/21 05:26:19;;;;;;;0.00;0.00;;;;;;;;;;6271358;22;20006;-68
2021/12/21 05:28:44;;;;;;;0.00;0.00;;;;;;;;;;6272880;22;20610;-67
2021/12/21 05:31:09;;;;;;;2.28;0.52;;;;;;;;;;6271616;22;19995;-68
2021/12/21 05:33:34;;;;;;;1.60;1.55;;;;;;;;;;6271699;22;19992;-68
2021/12/21 05:36:00;;;;;;;0.00;0.00;;;;;;;;;;6272302;22;20004;-68
2021/12/21 05:38:31;;;;;;;0.00;0.00;;;;;;;;;;6271562;22;20003;-69
2021/12/21 05:41:00;;;;;;;1.40;0.47;;;;;;;;;;6271634;22;20023;-68
2021/12/21 05:43:25;;;;;;;0.00;0.00;;;;;;;;;;6271816;22;20006;-69
2021/12/21 05:45:50;;;;;;;0.00;0.00;;;;;;;;;;6272481;22;20234;-68
2021/12/21 05:48:15;;;;;;;0.00;0.00;;;;;;;;;;6271852;22;20027;-68
2021/12/21 05:50:41;;;;;;;0.20;0.20;;;;;;;;;;6271506;22;20003;-68
2021/12/21 05:53:06;;;;;;;0.00;0.00;;;;;;;;;;6271418;22;20007;-68
2021/12/21 05:55:31;;;;;;;0.00;0.00;;;;;;;;;;6271906;22;20422;-68
2021/12/21 05:57:57;;;;;;;0.00;0.00;;;;;;;;;;6272295;22;20330;-68
2021/12/21 06:00:24;;;;;;;0.00;0.00;;;;;;;;;;6271715;22;20020;-68
2021/12/21 06:02:49;;;;;;;1.15;1.05;;;;;;;;;;6271539;22;20006;-68
2021/12/21 06:05:14;;;;;;;0.00;0.00;;;;;;;;;;6272209;22;20003;-68
2021/12/21 06:07:40;;;;;;;0.00;0.00;;;;;;;;;;6271126;22;20094;-69
2021/12/21 06:10:16;;;;;;;0.00;0.00;;;;;;;;;;6271916;22;20003;-69
2021/12/21 06:26:03;;;;;;;0.00;0.00;;;;;;;;;;6282668;22;20003;-68
2021/12/21 06:28:28;;;;;;;0.70;0.70;;;;;;;;;;6270692;22;20004;-68
2021/12/21 06:30:54;;;;;;;0.10;0.10;;;;;;;;;;6271543;22;20491;-68
2021/12/21 06:33:19;;;;;;;0.00;0.00;;;;;;;;;;6272188;22;20000;-68
2021/12/21 06:35:45;;;;;;;0.15;0.15;;;;;;;;;;6271352;22;20000;-69
2021/12/21 06:38:10;;;;;;;0.30;0.30;;;;;;;;;;6271820;22;20057;-67
2021/12/21 06:40:35;;;;;;;0.80;0.80;;;;;;;;;;6243981;22;20048;-68
2021/12/21 06:43:02;;;;;;;0.00;0.00;;;;;;;;;;6271406;22;20325;-69
2021/12/21 06:53:21;;;;;;;0.13;0.13;;;;;;;;;;6271224;22;20007;-68
2021/12/21 06:55:46;;;;;;;0.20;0.20;;;;;;;;;;6271564;22;20000;-67
2021/12/21 06:58:12;;;;;;;0.10;0.10;;;;;;;;;;6271024;22;20008;-68
2021/12/21 07:00:37;;;;;;;0.00;0.00;;;;;;;;;;6272030;22;20012;-68
2021/12/21 07:03:02;;;;;;;2.72;1.38;;;;;;;;;;6273510;22;20083;-69
2021/12/21 07:05:28;;;;;;;0.10;0.10;;;;;;;;;;6272825;22;20019;-69
2021/12/21 07:07:53;;;;;;;0.00;0.00;;;;;;;;;;6274028;22;20045;-69
2021/12/21 07:10:23;;;;;;;0.00;0.00;;;;;;;;;;6273251;22;20409;-69
2021/12/21 07:18:07;;;;;;;0.00;0.00;;;;;;;;;;6273364;22;20459;-69
2021/12/21 07:20:32;;;;;;;0.05;0.05;;;;;;;;;;6273254;22;20401;-68
2021/12/21 07:22:58;;;;;;;0.38;0.38;;;;;;;;;;6273836;22;20010;-68
2021/12/21 07:25:27;;;;;;;0.40;0.40;;;;;;;;;;6270564;22;20004;-68
2021/12/21 07:27:52;;;;;;;0.00;0.00;;;;;;;;;;6273454;22;20003;-68
2021/12/21 07:30:17;;;;;;;0.00;0.00;;;;;;;;;;6273319;22;20310;-68
2021/12/21 07:32:43;;;;;;;0.22;0.22;;;;;;;;;;6272273;22;20502;-67
2021/12/21 07:35:08;;;;;;;0.00;0.00;;;;;;;;;;6273600;22;20006;-66
2021/12/21 07:37:35;;;;;;;0.00;0.00;;;;;;;;;;6273066;22;20081;-67
2021/12/21 07:40:00;;;;;;;0.00;0.00;;;;;;;;;;6272857;22;20409;-67
2021/12/21 07:42:25;;;;;;;0.00;0.00;;;;;;;;;;6273096;22;20085;-67
2021/12/21 07:44:51;;;;;;;0.45;0.45;;;;;;;;;;6273220;22;19996;-66
2021/12/21 07:47:17;;;;;;;0.05;0.05;;;;;;;;;;6273153;22;19992;-67
2021/12/21 07:49:42;;;;;;;1.45;1.45;;;;;;;;;;6272462;22;20079;-67
2021/12/21 07:52:08;;;;;;;0.00;0.00;;;;;;;;;;6272327;22;20019;-67
2021/12/21 07:54:34;;;;;;;0.00;0.00;;;;;;;;;;6272422;22;20074;-68
2021/12/21 07:56:59;;;;;;;0.00;0.00;;;;;;;;;;6271816;22;20629;-68
2021/12/21 07:59:25;;;;;;;0.00;0.00;;;;;;;;;;6272157;22;20077;-69
2021/12/21 08:01:51;;;;;;;0.00;0.00;;;;;;;;;;6272412;22;20440;-66
2021/12/21 08:04:16;;;;;;;0.00;0.00;;;;;;;;;;6273141;22;20000;-67
2021/12/21 08:06:44;;;;;;;0.00;0.00;;;;;;;;;;6271445;22;20000;-67
2021/12/21 08:09:10;;;;;;;0.03;0.03;;;;;;;;;;6273138;22;20087;-67
2021/12/21 08:14:01;;;;;;;0.00;0.00;;;;;;;;;;6272034;22;20003;-68
2021/12/21 08:16:26;;;;;;;0.00;0.00;;;;;;;;;;6270789;22;19999;-67
2021/12/21 08:18:51;;;;;;;1.35;1.25;;;;;;;;;;6271653;22;20433;-67
2021/12/21 08:21:18;;;;;;;1.17;1.17;;;;;;;;;;6271996;22;19999;-66
2021/12/21 08:23:43;;;;;;;0.00;0.00;;;;;;;;;;6270500;22;20753;-66
2021/12/21 08:26:08;;;;;;;0.00;0.00;;;;;;;;;;6271809;22;20043;-67
2021/12/21 08:28:34;;;;;;;0.00;0.00;;;;;;;;;;6271726;22;20015;-67
2021/12/21 08:30:59;;;;;;;0.00;0.00;;;;;;;;;;6273155;22;20025;-68
2021/12/21 08:33:24;;;;;;;0.00;0.00;;;;;;;;;;6271255;22;19996;-68
2021/12/21 08:35:50;;;;;;;0.00;0.00;;;;;;;;;;6272875;22;20011;-67
2021/12/21 08:38:17;;;;;;;0.25;0.25;;;;;;;;;;6272119;22;20661;-67
2021/12/21 08:40:45;;;;;;;0.00;0.00;;;;;;;;;;6272265;22;20007;-68
2021/12/21 08:43:13;;;;;;;0.00;0.00;;;;;;;;;;6272484;22;20079;-68
2021/12/21 08:45:39;;;;;;;0.00;0.00;;;;;;;;;;6271808;22;19992;-68
2021/12/21 08:48:05;;;;;;;0.05;0.05;;;;;;;;;;6272832;22;20000;-65
2021/12/21 08:50:31;;;;;;;0.00;0.00;;;;;;;;;;6270673;22;19999;-65
2021/12/21 08:52:57;;;;;;;0.00;0.00;;;;;;;;;;6272778;22;20004;-65
2021/12/21 08:55:22;;;;;;;0.00;0.00;;;;;;;;;;6272502;22;20007;-66
2021/12/21 08:57:47;;;;;;;0.00;0.00;;;;;;;;;;6271958;22;20023;-66
2021/12/21 09:00:13;;;;;;;2.10;2.03;;;;;;;;;;6271802;22;20457;-66
2021/12/21 09:02:38;;;;;;;0.00;0.00;;;;;;;;;;6271223;22;20004;-66
2021/12/21 09:05:10;;;;;;;0.00;0.00;;;;;;;;;;6272385;22;20007;-66
2021/12/21 09:07:36;;;;;;;0.00;0.00;;;;;;;;;;6272592;22;20000;-66
2021/12/21 09:10:01;;;;;;;0.00;0.00;;;;;;;;;;6273316;22;20378;-66
2021/12/21 09:12:26;;;;;;;0.08;0.08;;;;;;;;;;6271497;22;20000;-66
2021/12/21 09:14:51;;;;;;;0.00;0.00;;;;;;;;;;6272293;22;20413;-66
2021/12/21 09:17:17;;;;;;;15.23;10.88;;;;;;;;;;6271803;22;20020;-66
2021/12/21 09:19:42;;;;;;;0.00;0.00;;;;;;;;;;6272220;22;19996;-67
2021/12/21 09:22:07;;;;;;;0.00;0.00;;;;;;;;;;6272272;22;19999;-66
2021/12/21 09:24:32;;;;;;;0.00;0.00;;;;;;;;;;6270916;22;20010;-66
2021/12/21 09:26:57;;;;;;;0.38;0.38;;;;;;;;;;6271992;22;20021;-67
2021/12/21 09:29:23;;;;;;;0.00;0.00;;;;;;;;;;6272525;22;20007;-67
2021/12/21 09:31:48;;;;;;;0.00;0.00;;;;;;;;;;6271795;22;19995;-68
2021/12/21 09:34:13;;;;;;;0.00;0.00;;;;;;;;;;6272233;22;20108;-67
2021/12/21 09:36:38;;;;;;;0.38;0.38;;;;;;;;;;6272085;22;20000;-67
2021/12/21 09:39:04;;;;;;;0.00;0.00;;;;;;;;;;6271924;22;20383;-66
2021/12/21 09:41:29;;;;;;;0.00;0.00;;;;;;;;;;6271721;22;20000;-67
2021/12/21 09:43:54;;;;;;;0.00;0.00;;;;;;;;;;6271762;22;19995;-66
2021/12/21 09:46:20;;;;;;;0.52;0.52;;;;;;;;;;6272042;22;20393;-66
2021/12/21 09:48:45;;;;;;;0.00;0.00;;;;;;;;;;6270941;22;20303;-66
2021/12/21 09:51:15;;;;;;;0.00;0.00;;;;;;;;;;6272033;22;20007;-67
2021/12/21 09:53:41;;;;;;;0.00;0.00;;;;;;;;;;6243332;22;20728;-66
2021/12/21 09:56:06;;;;;;;0.00;0.00;;;;;;;;;;6271856;22;20000;-66
2021/12/21 09:58:32;;;;;;;0.00;0.00;;;;;;;;;;6270700;22;20012;-67
2021/12/21 10:00:57;;;;;;;0.00;0.00;;;;;;;;;;6272132;22;19995;-67
2021/12/21 10:03:22;;;;;;;0.00;0.00;;;;;;;;;;6271719;22;20326;-67
2021/12/21 10:05:48;;;;;;;0.00;0.00;;;;;;;;;;6271358;22;20125;-66
2021/12/21 10:08:19;;;;;;;0.00;0.00;;;;;;;;;;6271662;22;20045;-66
2021/12/21 10:10:48;;;;;;;0.00;0.00;;;;;;;;;;6271641;22;20002;-66
2021/12/21 10:13:17;;;;;;;4.03;1.10;;;;;;;;;;6244277;22;20058;-67
2021/12/21 10:15:44;;;;;;;0.00;0.00;;;;;;;;;;6270597;22;19996;-67
2021/12/21 10:18:09;;;;;;;0.00;0.00;;;;;;;;;;6270966;22;19996;-67
2021/12/21 10:20:39;;;;;;;0.00;0.00;;;;;;;;;;6269423;22;20053;-66
2021/12/21 10:23:18;;;;;;;0.00;0.00;;;;;;;;;;6271637;22;20116;-66
2021/12/21 10:25:43;;;;;;;2.28;1.25;;;;;;;;;;6270006;22;19996;-66
2021/12/21 10:28:09;;;;;;;0.00;0.00;;;;;;;;;;6270889;22;20011;-66
2021/12/21 10:30:34;;;;;;;0.00;0.00;;;;;;;;;;6269935;22;20000;-67
2021/12/21 10:33:01;;;;;;;4.05;3.85;;;;;;;;;;6270465;22;20537;-66
2021/12/21 10:35:30;;;;;;;0.00;0.00;;;;;;;;;;6271488;22;20010;-66
2021/12/21 10:37:56;;;;;;;0.00;0.00;;;;;;;;;;6272628;22;20045;-66
2021/12/21 10:40:27;;;;;;;5.00;2.83;;;;;;;;;;6271611;22;20004;-66
2021/12/21 10:42:54;;;;;;;2.75;2.65;;;;;;;;;;6272410;22;20164;-66
2021/12/21 10:45:23;;;;;;;1.02;1.02;;;;;;;;;;6272751;22;19996;-67
2021/12/21 10:47:49;;;;;;;0.88;0.88;;;;;;;;;;6272635;22;20025;-67
2021/12/21 10:50:15;;;;;;;0.00;0.00;;;;;;;;;;6245230;22;20010;-67
2021/12/21 10:52:41;;;;;;;0.00;0.00;;;;;;;;;;6272743;22;19996;-67
2021/12/21 10:55:06;;;;;;;0.00;0.00;;;;;;;;;;6273180;22;20023;-65
2021/12/21 10:57:33;;;;;;;0.00;0.00;;;;;;;;;;6272942;22;20073;-65
2021/12/21 10:59:59;;;;;;;0.95;0.93;;;;;;;;;;6272838;22;20058;-65
2021/12/21 11:02:30;;;;;;;0.00;0.00;;;;;;;;;;6273398;22;20075;-65
2021/12/21 11:05:04;;;;;;;0.00;0.00;;;;;;;;;;6271174;22;20439;-65
2021/12/21 11:09:56;;;;;;;0.00;0.00;;;;;;;;;;6273374;22;20004;-65
2021/12/21 11:12:23;;;;;;;0.28;0.28;;;;;;;;;;6245380;22;19992;-66
2021/12/21 11:14:50;;;;;;;0.00;0.00;;;;;;;;;;6273040;22;20026;-65
2021/12/21 11:17:16;;;;;;;0.00;0.00;;;;;;;;;;6272321;22;20003;-65
2021/12/21 11:19:41;;;;;;;0.08;0.08;;;;;;;;;;6270735;22;20333;-64
2021/12/21 11:22:07;;;;;;;0.00;0.00;;;;;;;;;;6270671;22;20045;-64
2021/12/21 11:24:36;;;;;;;0.00;0.00;;;;;;;;;;6270691;22;19999;-66
2021/12/21 11:27:02;;;;;;;0.55;0.55;;;;;;;;;;6271655;22;20015;-65
2021/12/21 11:29:30;;;;;;;0.00;0.00;;;;;;;;;;6271258;22;20008;-64
2021/12/21 11:31:57;;;;;;;0.00;0.00;;;;;;;;;;6272192;22;19999;-64
2021/12/21 11:34:31;;;;;;;0.00;0.00;;;;;;;;;;6272776;22;20000;-65
2021/12/21 11:39:41;;;;;;;0.38;0.30;;;;;;;;;;6272057;22;20333;-64
2021/12/21 11:42:08;;;;;;;0.00;0.00;;;;;;;;;;6273234;22;20006;-65
2021/12/21 11:44:37;;;;;;;0.00;0.00;;;;;;;;;;6273125;22;20035;-62
2021/12/21 11:47:06;;;;;;;0.20;0.20;;;;;;;;;;6272955;22;20484;-66
2021/12/21 11:49:41;;;;;;;0.00;0.00;;;;;;;;;;6274380;22;20071;-66
2021/12/21 11:52:13;;;;;;;0.00;0.00;;;;;;;;;;6273557;22;20000;-65
2021/12/21 11:54:46;;;;;;;0.08;0.08;;;;;;;;;;6272103;22;20330;-60
2021/12/21 11:57:11;;;;;;;1.15;1.05;;;;;;;;;;6273021;22;20019;-60
2021/12/21 11:59:36;;;;;;;0.00;0.00;;;;;;;;;;6272500;22;20414;-60
2021/12/21 12:02:03;;;;;;;0.00;0.00;;;;;;;;;;6272426;22;20015;-60
2021/12/21 12:04:29;;;;;;;1.40;1.30;;;;;;;;;;6272374;22;19991;-60
2021/12/21 12:06:57;;;;;;;0.00;0.00;;;;;;;;;;6272111;22;20022;-60
2021/12/21 12:09:32;;;;;;;0.00;0.00;;;;;;;;;;6245699;22;20022;-60
2021/12/21 12:12:23;;;;;;;0.00;0.00;;;;;;;;;;6272244;22;20003;-60
2021/12/21 12:14:58;;;;;;;0.00;0.00;;;;;;;;;;6262187;22;20433;-60
2021/12/21 12:17:26;;;;;;;0.00;0.00;;;;;;;;;;6272274;22;20000;-60
2021/12/21 12:19:51;;;;;;;0.00;0.00;;;;;;;;;;6272351;22;20050;-60
2021/12/21 12:22:17;;;;;;;0.00;0.00;;;;;;;;;;6272586;22;20007;-60
2021/12/21 12:24:44;;;;;;;0.15;0.13;;;;;;;;;;6271400;22;19995;-59
2021/12/21 12:27:11;;;;;;;0.00;0.00;;;;;;;;;;6271836;22;20006;-60
2021/12/21 12:29:52;;;;;;;0.00;0.00;;;;;;;;;;6271996;22;20070;-61
2021/12/21 12:32:29;;;;;;;0.65;0.65;;;;;;;;;;6246073;22;20449;-59
2021/12/21 12:35:01;;;;;;;0.00;0.00;;;;;;;;;;6271632;22;20011;-61
2021/12/21 12:37:26;;;;;;;0.00;0.00;;;;;;;;;;6272906;22;20000;-61
2021/12/21 12:39:53;;;;;;;0.22;0.22;;;;;;;;;;6271991;22;20023;-59
2021/12/21 12:42:20;;;;;;;2.55;1.45;;;;;;;;;;6272593;22;19996;-65
2021/12/21 12:44:46;;;;;;;0.00;0.00;;;;;;;;;;6270394;22;20003;-65
2021/12/21 12:47:13;;;;;;;0.00;0.00;;;;;;;;;;6271912;22;20003;-65
2021/12/21 12:49:48;;;;;;;0.00;0.00;;;;;;;;;;6271754;22;20002;-66
2021/12/21 12:52:15;;;;;;;0.00;0.00;;;;;;;;;;6272232;22;20003;-66
2021/12/21 12:54:43;;;;;;;0.63;0.63;;;;;;;;;;6271216;22;19996;-66
2021/12/21 12:57:23;;;;;;;0.00;0.00;;;;;;;;;;6271208;22;20321;-66
2021/12/21 12:59:48;;;;;;;;;;;;;;;;;;6271133;22;20008;-66
2021/12/21 13:02:13;;;;;;;0.00;0.00;;;;;;;;;;6244882;22;19922;-65
2021/12/21 13:04:38;;;;;;;0.00;0.00;;;;;;;;;;6271928;22;20218;-66
2021/12/21 13:07:04;;;;;;;0.00;0.00;;;;;;;;;;6272948;22;20006;-66
2021/12/21 13:09:31;;;;;;;0.00;0.00;;;;;;;;;;6270880;22;19995;-66
2021/12/21 13:11:57;;;;;;;0.90;0.90;;;;;;;;;;6271264;22;20006;-66
2021/12/21 13:14:22;;;;;;;0.35;0.35;;;;;;;;;;6271371;22;20040;-64
2021/12/21 13:16:49;;;;;;;0.00;0.00;;;;;;;;;;6271699;22;19999;-65
2021/12/21 13:19:15;;;;;;;0.00;0.00;;;;;;;;;;6272086;22;20010;-64
2021/12/21 13:21:58;;;;;;;0.00;0.00;;;;;;;;;;6271138;22;20008;-64
2021/12/21 13:24:29;;;;;;;0.00;0.00;;;;;;;;;;6272318;22;20078;-65
2021/12/21 13:26:59;;;;;;;0.08;0.00;;;;;;;;;;6270997;22;20069;-64
2021/12/21 13:29:25;;;;;;;0.00;0.00;;;;;;;;;;6272127;22;20381;-66
2021/12/21 13:31:52;;;;;;;0.10;0.10;;;;;;;;;;6270741;22;20023;-66
2021/12/21 13:34:18;;;;;;;0.00;0.00;;;;;;;;;;6271953;22;20079;-67
2021/12/21 13:36:46;;;;;;;0.00;0.00;;;;;;;;;;6271425;22;19996;-66
2021/12/21 13:39:14;;;;;;;0.10;0.10;;;;;;;;;;6272154;22;20002;-67
2021/12/21 13:41:47;;;;;;;0.00;0.00;;;;;;;;;;6270587;22;20420;-65
2021/12/21 13:44:12;;;;;;;0.00;0.00;;;;;;;;;;6271117;22;20299;-66
2021/12/21 13:46:37;;;;;;;0.10;0.10;;;;;;;;;;6271567;22;20049;-66
2021/12/21 13:49:03;;;;;;;0.08;0.08;;;;;;;;;;6271233;22;20418;-66
2021/12/21 13:51:28;;;;;;;0.00;0.00;;;;;;;;;;6271985;22;20003;-66
2021/12/21 13:53:55;;;;;;;0.00;0.00;;;;;;;;;;6271597;22;20053;-66
2021/12/21 13:56:22;;;;;;;0.00;0.00;;;;;;;;;;6271961;22;20495;-66
2021/12/21 13:58:49;;;;;;;0.30;0.30;;;;;;;;;;6271106;22;20011;-69
2021/12/21 14:01:18;;;;;;;0.38;0.38;;;;;;;;;;6272455;22;20425;-59
2021/12/21 14:03:50;;;;;;;0.00;0.00;;;;;;;;;;6271433;22;20007;-58
2021/12/21 14:06:21;;;;;;;0.00;0.00;;;;;;;;;;6271646;22;20016;-59
2021/12/21 14:08:46;;;;;;;0.00;0.00;;;;;;;;;;6271312;22;20032;-59
2021/12/21 14:11:12;;;;;;;0.00;0.00;;;;;;;;;;6273482;22;20045;-59
2021/12/21 14:13:42;;;;;;;0.00;0.00;;;;;;;;;;6273765;22;20325;-60
2021/12/21 14:16:17;;;;;;;0.00;0.00;;;;;;;;;;6246351;22;20015;-59
2021/12/21 14:18:50;;;;;;;0.00;0.00;;;;;;;;;;6273320;22;19999;-59
2021/12/21 14:21:26;;;;;;;0.00;0.00;;;;;;;;;;6274018;22;20006;-59
2021/12/21 14:23:53;;;;;;;0.73;0.73;;;;;;;;;;6273371;22;20003;-59
2021/12/21 14:26:20;;;;;;;0.00;0.00;;;;;;;;;;6274415;22;19995;-59
2021/12/21 14:28:51;;;;;;;0.22;0.22;;;;;;;;;;6274105;22;19999;-59
2021/12/21 14:31:19;;;;;;;6.35;2.17;;;;;;;;;;6274674;22;20014;-59
2021/12/21 14:33:50;;;;;;;0.00;0.00;;;;;;;;;;6274384;22;20042;-63
2021/12/21 14:36:19;;;;;;;0.00;0.00;;;;;;;;;;6274339;22;19999;-62
2021/12/21 14:38:56;;;;;;;0.00;0.00;;;;;;;;;;6274500;22;20118;-63
2021/12/21 14:41:30;;;;;;;0.00;0.00;;;;;;;;;;6274064;22;20000;-65
2021/12/21 14:43:59;;;;;;;0.00;0.00;;;;;;;;;;6272622;22;20423;-65
2021/12/21 14:46:25;;;;;;;0.10;0.10;;;;;;;;;;6274461;22;20007;-65
2021/12/21 14:49:17;;;;;;;0.03;0.03;;;;;;;;;;6245939;22;20420;-64
2021/12/21 14:51:50;;;;;;;0.60;0.28;;;;;;;;;;6265470;22;20015;-64
2021/12/21 14:54:23;;;;;;;0.00;0.00;;;;;;;;;;6273634;22;20067;-64
2021/12/21 14:56:49;;;;;;;0.00;0.00;;;;;;;;;;6272853;22;20178;-63
2021/12/21 14:59:14;;;;;;;0.50;0.50;;;;;;;;;;6272893;22;20050;-63
2021/12/21 15:01:42;;;;;;;0.25;0.25;;;;;;;;;;6273433;22;20015;-63
2021/12/21 15:04:20;;;;;;;0.00;0.00;;;;;;;;;;6274048;22;20351;-63
2021/12/21 15:06:45;;;;;;;2.40;1.25;;;;;;;;;;6272693;22;20004;-62
2021/12/21 15:09:10;;;;;;;0.65;0.52;;;;;;;;;;6273325;22;20000;-64
2021/12/21 15:11:35;;;;;;;0.00;0.00;;;;;;;;;;6273038;22;20090;-63
2021/12/21 15:14:01;;;;;;;0.00;0.00;;;;;;;;;;6272430;22;19996;-64
2021/12/21 15:16:26;;;;;;;0.00;0.00;;;;;;;;;;6272547;22;20007;-64
2021/12/21 15:18:51;;;;;;;0.00;0.00;;;;;;;;;;6272647;22;20048;-64
2021/12/21 15:21:16;;;;;;;0.03;0.03;;;;;;;;;;6273226;22;20000;-64
2021/12/21 15:23:41;;;;;;;0.10;0.10;;;;;;;;;;6272616;22;20027;-64
2021/12/21 15:26:07;;;;;;;0.00;0.00;;;;;;;;;;6272406;22;20000;-64
2021/12/21 15:28:34;;;;;;;0.00;0.00;;;;;;;;;;6245618;22;20007;-64
2021/12/21 15:30:59;;;;;;;0.00;0.00;;;;;;;;;;6272859;22;20068;-64
2021/12/21 15:33:24;;;;;;;0.00;0.00;;;;;;;;;;6273504;22;20421;-64
2021/12/21 15:35:49;;;;;;;0.00;0.00;;;;;;;;;;6272791;22;20000;-65
2021/12/21 15:38:15;;;;;;;0.00;0.00;;;;;;;;;;6245621;22;20000;-64
2021/12/21 15:40:40;;;;;;;0.00;0.00;;;;;;;;;;6273304;22;20011;-64
2021/12/21 15:43:07;;;;;;;1.80;1.73;;;;;;;;;;6272508;22;20043;-64
2021/12/21 15:45:32;;;;;;;0.00;0.00;;;;;;;;;;6272991;22;20006;-64
2021/12/21 15:47:58;;;;;;;0.00;0.00;;;;;;;;;;6272430;22;20031;-64
2021/12/21 15:50:23;;;;;;;0.00;0.00;;;;;;;;;;6273103;22;19996;-63
2021/12/21 15:52:48;;;;;;;0.00;0.00;;;;;;;;;;6272876;22;20332;-64
2021/12/21 15:55:15;;;;;;;0.00;0.00;;;;;;;;;;6272943;22;20010;-63